createdAt,value
2023-05-12T00:00:57.209Z,0.00
2023-05-12T00:01:57.159Z,0.00
2023-05-12T00:02:57.231Z,0.00
2023-05-12T00:03:57.359Z,0.00
2023-05-12T00:04:57.820Z,0.00
2023-05-12T00:05:57.151Z,0.00
2023-05-12T00:06:57.120Z,0.00
2023-05-12T00:07:57.140Z,0.00
2023-05-12T00:08:57.133Z,0.00
2023-05-12T00:09:57.175Z,0.00
2023-05-12T00:10:57.122Z,0.00
2023-05-12T00:11:57.113Z,0.00
2023-05-12T00:12:57.119Z,0.00
2023-05-12T00:13:57.219Z,0.00
2023-05-12T00:14:57.135Z,0.00
2023-05-12T00:15:57.173Z,0.00
2023-05-12T00:16:57.131Z,0.00
2023-05-12T00:17:57.149Z,0.00
2023-05-12T00:18:57.194Z,0.00
2023-05-12T00:19:57.108Z,0.00
2023-05-12T00:20:57.155Z,0.00
2023-05-12T00:21:57.796Z,0.00
2023-05-12T00:22:57.116Z,0.00
2023-05-12T00:23:57.113Z,0.00
2023-05-12T00:24:57.115Z,0.00
2023-05-12T00:25:57.111Z,0.00
2023-05-12T00:26:57.121Z,0.00
2023-05-12T00:27:57.127Z,0.00
2023-05-12T00:28:57.127Z,0.00
2023-05-12T00:29:57.108Z,0.00
2023-05-12T00:30:57.107Z,0.00
2023-05-12T00:31:57.221Z,0.00
2023-05-12T00:32:57.186Z,0.00
2023-05-12T00:33:57.105Z,0.00
2023-05-12T00:34:57.118Z,0.00
2023-05-12T00:35:57.115Z,0.00
2023-05-12T00:36:57.105Z,0.00
2023-05-12T00:37:57.102Z,0.00
2023-05-12T00:38:57.113Z,0.00
2023-05-12T00:39:57.104Z,0.00
2023-05-12T00:40:57.104Z,0.00
2023-05-12T00:41:57.110Z,0.00
2023-05-12T00:42:57.110Z,0.00
2023-05-12T00:43:57.118Z,0.00
2023-05-12T00:44:57.099Z,0.00
2023-05-12T00:45:57.182Z,0.00
2023-05-12T00:46:57.106Z,0.00
2023-05-12T00:47:57.159Z,0.00
2023-05-12T00:48:57.096Z,0.00
2023-05-12T00:49:57.104Z,0.00
2023-05-12T00:50:57.097Z,0.00
2023-05-12T00:51:57.099Z,0.00
2023-05-12T00:52:57.092Z,0.00
2023-05-12T00:53:57.094Z,0.00
2023-05-12T00:54:57.096Z,0.00
2023-05-12T00:55:57.147Z,0.00
2023-05-12T00:56:57.127Z,0.00
2023-05-12T00:57:57.109Z,0.00
2023-05-12T00:58:57.091Z,0.00
2023-05-12T00:59:57.100Z,0.00
2023-05-12T01:00:57.112Z,0.00
2023-05-12T01:01:57.093Z,0.00
2023-05-12T01:02:57.188Z,0.00
2023-05-12T01:03:57.099Z,0.00
2023-05-12T01:04:57.095Z,0.00
2023-05-12T01:05:57.093Z,0.00
2023-05-12T01:06:57.087Z,0.00
2023-05-12T01:08:04.316Z,0.00
2023-05-12T01:10:01.092Z,0.00
2023-05-12T01:11:01.073Z,0.00
2023-05-12T01:13:05.133Z,0.00
2023-05-12T01:14:05.094Z,0.00
2023-05-12T01:16:09.094Z,0.00
2023-05-12T01:17:09.143Z,0.00
2023-05-12T01:19:02.135Z,0.00
2023-05-12T01:20:02.018Z,0.00
2023-05-12T01:21:55.123Z,0.00
2023-05-12T01:22:55.134Z,0.00
2023-05-12T01:24:59.137Z,0.00
2023-05-12T01:25:59.111Z,0.00
2023-05-12T01:28:03.114Z,0.00
2023-05-12T01:29:03.121Z,0.00
2023-05-12T01:31:07.148Z,0.00
2023-05-12T01:32:07.111Z,0.00
2023-05-12T01:34:11.132Z,0.00
2023-05-12T01:35:11.125Z,0.00
2023-05-12T01:37:15.123Z,0.00
2023-05-12T01:38:15.137Z,0.00
2023-05-12T01:40:19.915Z,0.00
2023-05-12T01:41:19.302Z,0.00
2023-05-12T01:43:23.309Z,0.00
2023-05-12T01:44:23.292Z,0.00
2023-05-12T01:46:27.307Z,0.00
2023-05-12T01:47:27.337Z,0.00
2023-05-12T01:49:20.806Z,0.00
2023-05-12T01:50:20.551Z,0.00
2023-05-12T01:52:24.393Z,0.00
2023-05-12T01:53:24.358Z,0.00
2023-05-12T01:55:28.378Z,0.00
2023-05-12T01:56:28.359Z,0.00
2023-05-12T01:58:32.380Z,0.00
2023-05-12T01:59:32.405Z,0.00
2023-05-12T02:01:36.448Z,0.00
2023-05-12T02:02:36.438Z,0.00
2023-05-12T02:04:40.385Z,0.00
2023-05-12T02:05:40.366Z,0.00
2023-05-12T02:07:44.371Z,0.00
2023-05-12T02:08:44.379Z,0.00
2023-05-12T02:10:48.431Z,0.00
2023-05-12T02:11:48.355Z,0.00
2023-05-12T02:13:52.378Z,0.00
2023-05-12T02:14:52.371Z,0.00
2023-05-12T02:16:56.394Z,0.00
2023-05-12T02:17:56.429Z,0.00
2023-05-12T02:20:01.407Z,0.00
2023-05-12T02:21:01.385Z,0.00
2023-05-12T02:23:05.388Z,0.00
2023-05-12T02:24:05.388Z,0.00
2023-05-12T02:26:09.387Z,0.00
2023-05-12T02:27:09.434Z,0.00
2023-05-12T02:29:02.285Z,0.00
2023-05-12T02:30:02.282Z,0.00
2023-05-12T02:32:06.395Z,0.00
2023-05-12T02:33:06.350Z,0.00
2023-05-12T02:35:10.295Z,0.00
2023-05-12T02:36:10.263Z,0.00
2023-05-12T02:37:10.280Z,0.00
2023-05-12T02:38:10.269Z,0.00
2023-05-12T02:39:10.266Z,0.00
2023-05-12T02:40:10.263Z,4.00
2023-05-12T02:41:10.255Z,0.00
2023-05-12T02:42:10.266Z,0.00
2023-05-12T02:43:10.259Z,4.00
2023-05-12T02:44:10.268Z,4.00
2023-05-12T02:45:10.263Z,0.00
2023-05-12T02:46:10.312Z,4.00
2023-05-12T02:47:10.259Z,4.00
2023-05-12T02:48:10.314Z,4.00
2023-05-12T02:49:10.256Z,8.00
2023-05-12T02:50:10.272Z,4.00
2023-05-12T02:51:10.273Z,4.00
2023-05-12T02:52:10.254Z,4.00
2023-05-12T02:53:10.268Z,8.00
2023-05-12T02:54:10.253Z,12.00
2023-05-12T02:55:10.262Z,8.00
2023-05-12T02:56:10.265Z,12.00
2023-05-12T02:57:10.255Z,12.00
2023-05-12T02:58:10.265Z,12.00
2023-05-12T02:59:10.252Z,16.00
2023-05-12T03:00:10.255Z,20.00
2023-05-12T03:01:11.474Z,20.00
2023-05-12T03:02:10.546Z,24.00
2023-05-12T03:03:10.293Z,28.00
2023-05-12T03:04:10.267Z,32.00
2023-05-12T03:05:10.280Z,36.00
2023-05-12T03:06:10.253Z,36.00
2023-05-12T03:07:10.252Z,44.00
2023-05-12T03:08:10.256Z,48.00
2023-05-12T03:09:10.261Z,56.00
2023-05-12T03:10:10.268Z,60.00
2023-05-12T03:11:10.323Z,64.00
2023-05-12T03:12:10.305Z,68.00
2023-05-12T03:13:10.246Z,76.00
2023-05-12T03:14:10.271Z,84.00
2023-05-12T03:15:10.250Z,88.00
2023-05-12T03:16:10.242Z,100.00
2023-05-12T03:17:10.290Z,108.00
2023-05-12T03:18:10.265Z,116.00
2023-05-12T03:19:10.390Z,124.00
2023-05-12T03:20:10.335Z,136.00
2023-05-12T03:21:10.237Z,148.00
2023-05-12T03:22:10.243Z,160.00
2023-05-12T03:23:10.249Z,172.00
2023-05-12T03:24:10.237Z,184.00
2023-05-12T03:25:10.268Z,196.00
2023-05-12T03:26:10.265Z,208.00
2023-05-12T03:27:10.271Z,224.00
2023-05-12T03:28:10.242Z,240.00
2023-05-12T03:29:10.226Z,256.00
2023-05-12T03:30:10.235Z,272.00
2023-05-12T03:31:10.318Z,288.00
2023-05-12T03:32:10.224Z,308.00
2023-05-12T03:33:10.219Z,328.00
2023-05-12T03:34:10.222Z,340.00
2023-05-12T03:35:10.233Z,360.00
2023-05-12T03:36:10.257Z,380.00
2023-05-12T03:37:10.210Z,400.00
2023-05-12T03:38:10.232Z,420.00
2023-05-12T03:39:10.228Z,440.00
2023-05-12T03:40:10.226Z,460.00
2023-05-12T03:41:10.224Z,480.00
2023-05-12T03:42:10.222Z,504.00
2023-05-12T03:43:10.214Z,524.00
2023-05-12T03:44:10.233Z,548.00
2023-05-12T03:45:10.204Z,568.00
2023-05-12T03:46:10.270Z,588.00
2023-05-12T03:47:10.252Z,612.00
2023-05-12T03:48:10.262Z,632.00
2023-05-12T03:49:10.233Z,652.00
2023-05-12T03:50:10.228Z,672.00
2023-05-12T03:51:10.234Z,696.00
2023-05-12T03:52:10.235Z,720.00
2023-05-12T03:53:10.227Z,744.00
2023-05-12T03:54:10.210Z,764.00
2023-05-12T03:55:10.191Z,792.00
2023-05-12T03:56:10.205Z,816.00
2023-05-12T03:57:10.233Z,836.00
2023-05-12T03:58:10.203Z,860.00
2023-05-12T03:59:10.182Z,884.00
2023-05-12T04:00:10.710Z,908.00
2023-05-12T04:01:10.218Z,924.00
2023-05-12T04:02:10.193Z,940.00
2023-05-12T04:03:10.274Z,956.00
2023-05-12T04:04:10.233Z,968.00
2023-05-12T04:05:10.256Z,980.00
2023-05-12T04:06:10.180Z,992.00
2023-05-12T04:07:10.177Z,1000.00
2023-05-12T04:08:10.185Z,1020.00
2023-05-12T04:09:10.196Z,1044.00
2023-05-12T04:10:10.184Z,1068.00
2023-05-12T04:11:10.179Z,1112.00
2023-05-12T04:12:10.164Z,1160.00
2023-05-12T04:13:10.166Z,1196.00
2023-05-12T04:14:10.190Z,1236.00
2023-05-12T04:15:10.163Z,1284.00
2023-05-12T04:16:10.231Z,1340.00
2023-05-12T04:17:10.167Z,1392.00
2023-05-12T04:18:10.171Z,1448.00
2023-05-12T04:19:10.242Z,1496.00
2023-05-12T04:20:10.191Z,1548.00
2023-05-12T04:21:10.166Z,1616.00
2023-05-12T04:22:10.156Z,1720.00
2023-05-12T04:23:10.161Z,1848.00
2023-05-12T04:24:10.184Z,1968.00
2023-05-12T04:25:10.175Z,2044.00
2023-05-12T04:26:10.171Z,2092.00
2023-05-12T04:27:10.212Z,2124.00
2023-05-12T04:28:12.046Z,2196.00
2023-05-12T04:29:10.144Z,2232.00
2023-05-12T04:30:10.164Z,2268.00
2023-05-12T04:31:10.156Z,2292.00
2023-05-12T04:32:10.239Z,2316.00
2023-05-12T04:33:10.323Z,2352.00
2023-05-12T04:34:10.144Z,2388.00
2023-05-12T04:35:10.148Z,2496.00
2023-05-12T04:36:10.151Z,2556.00
2023-05-12T04:37:10.146Z,2544.00
2023-05-12T04:38:10.178Z,2564.00
2023-05-12T04:39:10.146Z,2608.00
2023-05-12T04:40:10.148Z,2640.00
2023-05-12T04:41:10.149Z,2704.00
2023-05-12T04:42:10.154Z,2744.00
2023-05-12T04:44:00.000Z,2668.00
2023-05-12T04:44:10.144Z,2704.00
2023-05-12T04:45:10.142Z,2716.00
2023-05-12T04:46:10.177Z,2700.00
2023-05-12T04:47:10.130Z,2616.00
2023-05-12T04:48:10.152Z,2576.00
2023-05-12T04:49:10.148Z,2624.00
2023-05-12T04:50:10.145Z,2796.00
2023-05-12T04:51:10.158Z,3040.00
2023-05-12T04:52:10.164Z,3220.00
2023-05-12T04:53:11.392Z,3232.00
2023-05-12T04:54:10.142Z,3180.00
2023-05-12T04:55:10.157Z,3164.00
2023-05-12T04:56:10.134Z,3368.00
2023-05-12T04:57:10.127Z,3540.00
2023-05-12T04:58:10.129Z,3568.00
2023-05-12T04:59:10.125Z,3692.00
2023-05-12T05:00:10.152Z,3796.00
2023-05-12T05:01:10.162Z,3952.00
2023-05-12T05:02:10.193Z,3960.00
2023-05-12T05:03:10.264Z,4080.00
2023-05-12T05:04:10.162Z,4268.00
2023-05-12T05:05:10.143Z,4620.00
2023-05-12T05:06:10.307Z,5012.00
2023-05-12T05:07:10.133Z,5316.00
2023-05-12T05:08:10.104Z,5464.00
2023-05-12T05:09:10.156Z,5516.00
2023-05-12T05:10:10.195Z,5576.00
2023-05-12T05:11:10.187Z,5664.00
2023-05-12T05:12:10.234Z,5724.00
2023-05-12T05:13:10.153Z,5652.00
2023-05-12T05:14:10.188Z,5548.00
2023-05-12T05:15:10.145Z,5480.00
2023-05-12T05:16:10.169Z,5736.00
2023-05-12T05:17:10.727Z,5692.00
2023-05-12T05:18:10.175Z,5712.00
2023-05-12T05:19:19.557Z,5604.00
2023-05-12T05:20:12.386Z,5852.00
2023-05-12T05:21:10.206Z,6404.00
2023-05-12T05:22:10.142Z,6752.00
2023-05-12T05:23:10.130Z,6792.00
2023-05-12T05:24:10.117Z,7120.00
2023-05-12T05:25:10.235Z,7444.00
2023-05-12T05:26:10.154Z,7268.00
2023-05-12T05:27:10.292Z,7376.00
2023-05-12T05:28:10.195Z,7556.00
2023-05-12T05:29:10.154Z,7416.00
2023-05-12T05:30:10.132Z,7036.00
2023-05-12T05:31:10.205Z,6972.00
2023-05-12T05:32:10.120Z,24256.00
2023-05-12T05:33:10.194Z,51520.00
2023-05-12T05:34:10.181Z,71168.00
2023-05-12T05:35:10.273Z,70048.00
2023-05-12T05:36:10.110Z,71136.00
2023-05-12T05:37:10.131Z,70848.00
2023-05-12T05:38:10.167Z,65120.00
2023-05-12T05:39:10.147Z,64800.00
2023-05-12T05:40:10.153Z,64032.00
2023-05-12T05:41:10.121Z,64992.00
2023-05-12T05:42:10.132Z,68384.00
2023-05-12T05:43:10.135Z,69536.00
2023-05-12T05:44:10.132Z,69344.00
2023-05-12T05:45:10.162Z,69056.00
2023-05-12T05:46:10.146Z,67232.00
2023-05-12T05:47:10.197Z,68224.00
2023-05-12T05:48:10.217Z,70016.00
2023-05-12T05:49:10.200Z,71168.00
2023-05-12T05:50:10.193Z,73824.00
2023-05-12T05:51:10.162Z,76352.00
2023-05-12T05:52:10.172Z,76576.00
2023-05-12T05:53:10.217Z,75872.00
2023-05-12T05:54:10.198Z,73024.00
2023-05-12T05:55:10.203Z,76064.00
2023-05-12T05:56:10.211Z,78912.00
2023-05-12T05:57:10.252Z,79200.00
2023-05-12T05:58:10.285Z,78336.00
2023-05-12T05:59:10.261Z,77632.00
2023-05-12T06:00:10.279Z,79456.00
2023-05-12T06:01:10.259Z,80640.00
2023-05-12T06:02:10.305Z,80832.00
2023-05-12T06:03:10.356Z,84512.00
2023-05-12T06:04:10.368Z,85120.00
2023-05-12T06:05:10.351Z,84864.00
2023-05-12T06:06:10.346Z,83680.00
2023-05-12T06:07:10.324Z,83648.00
2023-05-12T06:08:10.345Z,83232.00
2023-05-12T06:09:10.343Z,83520.00
2023-05-12T06:10:10.361Z,85088.00
2023-05-12T06:11:10.371Z,85984.00
2023-05-12T06:12:10.380Z,84480.00
2023-05-12T06:13:10.411Z,83872.00
2023-05-12T06:14:10.430Z,82240.00
2023-05-12T06:15:10.430Z,82560.00
2023-05-12T06:16:10.463Z,83936.00
2023-05-12T06:17:10.475Z,85216.00
2023-05-12T06:18:10.516Z,84672.00
2023-05-12T06:19:10.553Z,84800.00
2023-05-12T06:20:10.494Z,86880.00
2023-05-12T06:21:11.257Z,86272.00
2023-05-12T06:22:10.502Z,84000.00
2023-05-12T06:23:10.526Z,80320.00
2023-05-12T06:24:10.567Z,74592.00
2023-05-12T06:25:10.574Z,73984.00
2023-05-12T06:26:10.577Z,76704.00
2023-05-12T06:27:10.567Z,73824.00
2023-05-12T06:28:10.593Z,64512.00
2023-05-12T06:29:10.605Z,58144.00
2023-05-12T06:30:10.614Z,53536.00
2023-05-12T06:31:10.725Z,50848.00
2023-05-12T06:32:10.804Z,53152.00
2023-05-12T06:33:10.694Z,65984.00
2023-05-12T06:34:10.724Z,75040.00
2023-05-12T06:35:10.780Z,74304.00
2023-05-12T06:36:10.712Z,76672.00
2023-05-12T06:37:10.756Z,79296.00
2023-05-12T06:38:10.740Z,81632.00
2023-05-12T06:39:10.757Z,83808.00
2023-05-12T06:40:10.779Z,87872.00
2023-05-12T06:41:10.778Z,88704.00
2023-05-12T06:42:10.786Z,87200.00
2023-05-12T06:43:10.824Z,82976.00
2023-05-12T06:44:10.823Z,81600.00
2023-05-12T06:45:10.878Z,84128.00
2023-05-12T06:46:10.863Z,85216.00
2023-05-12T06:47:10.881Z,84320.00
2023-05-12T06:48:10.892Z,85344.00
2023-05-12T06:49:10.895Z,82944.00
2023-05-12T06:50:10.918Z,82208.00
2023-05-12T06:51:10.923Z,81664.00
2023-05-12T06:52:11.024Z,82176.00
2023-05-12T06:53:10.987Z,82464.00
2023-05-12T06:54:10.955Z,83648.00
2023-05-12T06:55:11.005Z,83072.00
2023-05-12T06:56:10.995Z,84288.00
2023-05-12T06:57:11.009Z,83680.00
2023-05-12T06:58:11.020Z,82880.00
2023-05-12T06:59:11.065Z,78368.00
2023-05-12T07:00:11.071Z,71456.00
2023-05-12T07:01:11.104Z,68384.00
2023-05-12T07:02:11.088Z,71840.00
2023-05-12T07:03:11.125Z,74016.00
2023-05-12T07:04:11.328Z,71584.00
2023-05-12T07:05:11.147Z,71456.00
2023-05-12T07:06:11.219Z,68128.00
2023-05-12T07:07:11.220Z,69824.00
2023-05-12T07:08:11.221Z,74656.00
2023-05-12T07:09:11.200Z,79744.00
2023-05-12T07:10:11.206Z,83072.00
2023-05-12T07:11:11.237Z,82464.00
2023-05-12T07:12:11.230Z,77920.00
2023-05-12T07:13:11.261Z,79328.00
2023-05-12T07:14:11.301Z,85536.00
2023-05-12T07:15:11.303Z,87520.00
2023-05-12T07:16:11.341Z,86624.00
2023-05-12T07:17:11.326Z,86560.00
2023-05-12T07:18:11.398Z,87040.00
2023-05-12T07:19:11.455Z,86688.00
2023-05-12T07:20:11.682Z,84864.00
2023-05-12T07:21:11.421Z,85376.00
2023-05-12T07:22:11.385Z,86912.00
2023-05-12T07:23:11.431Z,83776.00
2023-05-12T07:24:11.418Z,85344.00
2023-05-12T07:25:11.482Z,84672.00
2023-05-12T07:26:11.453Z,83168.00
2023-05-12T07:27:11.488Z,86048.00
2023-05-12T07:28:11.499Z,86304.00
2023-05-12T07:29:13.440Z,84896.00
2023-05-12T07:30:11.521Z,87584.00
2023-05-12T07:31:11.715Z,86560.00
2023-05-12T07:32:11.550Z,83232.00
2023-05-12T07:33:11.615Z,86752.00
2023-05-12T07:34:11.594Z,89888.00
2023-05-12T07:35:11.615Z,91008.00
2023-05-12T07:36:11.624Z,90112.00
2023-05-12T07:37:11.648Z,85440.00
2023-05-12T07:38:11.653Z,82368.00
2023-05-12T07:39:11.673Z,83488.00
2023-05-12T07:40:11.681Z,83616.00
2023-05-12T07:41:11.697Z,83616.00
2023-05-12T07:42:11.714Z,80128.00
2023-05-12T07:43:11.734Z,85696.00
2023-05-12T07:44:11.790Z,92960.00
2023-05-12T07:45:11.782Z,93728.00
2023-05-12T07:46:11.796Z,88992.00
2023-05-12T07:47:11.826Z,84896.00
2023-05-12T07:48:11.875Z,85408.00
2023-05-12T07:49:11.836Z,83136.00
2023-05-12T07:50:11.857Z,82400.00
2023-05-12T07:51:11.863Z,84320.00
2023-05-12T07:52:11.915Z,79712.00
2023-05-12T07:53:11.907Z,79840.00
2023-05-12T07:54:11.919Z,83680.00
2023-05-12T07:55:11.926Z,79872.00
2023-05-12T07:56:11.942Z,75456.00
2023-05-12T07:57:11.968Z,74016.00
2023-05-12T07:58:11.981Z,57152.00
2023-05-12T07:59:11.994Z,27072.00
2023-05-12T08:00:12.014Z,19424.00
2023-05-12T08:01:12.027Z,17792.00
2023-05-12T08:02:12.085Z,16928.00
2023-05-12T08:03:12.158Z,16192.00
2023-05-12T08:04:12.180Z,15648.00
2023-05-12T08:05:12.079Z,15060.00
2023-05-12T08:06:12.098Z,14548.00
2023-05-12T08:07:12.123Z,14140.00
2023-05-12T08:08:12.237Z,13740.00
2023-05-12T08:09:12.210Z,13272.00
2023-05-12T08:10:12.256Z,12816.00
2023-05-12T08:11:12.257Z,12388.00
2023-05-12T08:12:12.222Z,11972.00
2023-05-12T08:13:12.216Z,11560.00
2023-05-12T08:14:12.238Z,11156.00
2023-05-12T08:15:12.239Z,10780.00
2023-05-12T08:16:12.251Z,10432.00
2023-05-12T08:17:12.334Z,10056.00
2023-05-12T08:18:12.316Z,9772.00
2023-05-12T08:19:12.341Z,9512.00
2023-05-12T08:20:12.337Z,9260.00
2023-05-12T08:21:12.315Z,9036.00
2023-05-12T08:22:12.357Z,8808.00
2023-05-12T08:23:12.326Z,8628.00
2023-05-12T08:24:12.404Z,8420.00
2023-05-12T08:25:12.774Z,8248.00
2023-05-12T08:26:12.358Z,8064.00
2023-05-12T08:27:12.387Z,7912.00
2023-05-12T08:28:12.419Z,7780.00
2023-05-12T08:29:12.389Z,7628.00
2023-05-12T08:30:12.376Z,7508.00
2023-05-12T08:31:12.476Z,7372.00
2023-05-12T08:32:12.410Z,7236.00
2023-05-12T08:33:12.482Z,7116.00
2023-05-12T08:34:12.441Z,6996.00
2023-05-12T08:35:12.430Z,6852.00
2023-05-12T08:36:12.447Z,6736.00
2023-05-12T08:37:12.466Z,6648.00
2023-05-12T08:38:12.450Z,6556.00
2023-05-12T08:39:12.492Z,6460.00
2023-05-12T08:40:12.490Z,6360.00
2023-05-12T08:41:12.542Z,6272.00
2023-05-12T08:42:12.511Z,6176.00
2023-05-12T08:43:13.424Z,6104.00
2023-05-12T08:44:12.562Z,6016.00
2023-05-12T08:45:12.620Z,5920.00
2023-05-12T08:46:12.598Z,5836.00
2023-05-12T08:47:12.538Z,5760.00
2023-05-12T08:48:12.547Z,5684.00
2023-05-12T08:49:12.591Z,5616.00
2023-05-12T08:50:12.548Z,5540.00
2023-05-12T08:51:13.394Z,5476.00
2023-05-12T08:52:12.544Z,5416.00
2023-05-12T08:53:12.550Z,5360.00
2023-05-12T08:54:12.594Z,5296.00
2023-05-12T08:55:12.610Z,5300.00
2023-05-12T08:57:12.567Z,5156.00
2023-05-12T08:58:12.558Z,5104.00
2023-05-12T08:59:12.566Z,5036.00
2023-05-12T09:00:12.609Z,5008.00
2023-05-12T09:01:12.751Z,4976.00
2023-05-12T09:02:12.623Z,4920.00
2023-05-12T09:03:12.618Z,4856.00
2023-05-12T09:04:12.706Z,4812.00
2023-05-12T09:05:12.645Z,4776.00
2023-05-12T09:06:12.670Z,4684.00
2023-05-12T09:07:12.610Z,4628.00
2023-05-12T09:08:12.612Z,4584.00
2023-05-12T09:09:12.646Z,4560.00
2023-05-12T09:10:22.460Z,4564.00
2023-05-12T09:11:12.641Z,4504.00
2023-05-12T09:12:14.020Z,4460.00
2023-05-12T09:13:12.664Z,4448.00
2023-05-12T09:14:12.655Z,4428.00
2023-05-12T09:15:12.686Z,4384.00
2023-05-12T09:16:12.690Z,4368.00
2023-05-12T09:17:12.686Z,4360.00
2023-05-12T09:18:12.691Z,4336.00
2023-05-12T09:19:12.731Z,4336.00
2023-05-12T09:20:23.906Z,4376.00
2023-05-12T09:21:12.697Z,4360.00
2023-05-12T09:22:12.707Z,4332.00
2023-05-12T09:23:12.702Z,4268.00
2023-05-12T09:24:12.715Z,4240.00
2023-05-12T09:25:14.585Z,4268.00
2023-05-12T09:26:12.732Z,4364.00
2023-05-12T09:27:12.737Z,4488.00
2023-05-12T09:28:12.777Z,4460.00
2023-05-12T09:29:18.271Z,4396.00
2023-05-12T09:30:12.768Z,4380.00
2023-05-12T09:31:14.640Z,4160.00
2023-05-12T09:32:12.836Z,4424.00
2023-05-12T09:33:12.834Z,4460.00
2023-05-12T09:34:12.754Z,4328.00
2023-05-12T09:35:12.770Z,4252.00
2023-05-12T09:36:12.775Z,4248.00
2023-05-12T09:37:15.209Z,4196.00
2023-05-12T09:38:12.798Z,4212.00
2023-05-12T09:39:12.816Z,4236.00
2023-05-12T09:40:12.955Z,4232.00
2023-05-12T09:41:12.779Z,4240.00
2023-05-12T09:42:12.826Z,4248.00
2023-05-12T09:43:15.266Z,4400.00
2023-05-12T09:44:12.827Z,4580.00
2023-05-12T09:45:12.799Z,4616.00
2023-05-12T09:46:12.883Z,4840.00
2023-05-12T09:47:12.822Z,5164.00
2023-05-12T09:48:12.815Z,5168.00
2023-05-12T09:49:12.828Z,5012.00
2023-05-12T09:50:12.836Z,4836.00
2023-05-12T09:51:12.821Z,4548.00
2023-05-12T09:52:12.830Z,3884.00
2023-05-12T09:53:12.861Z,4060.00
2023-05-12T09:54:12.828Z,3996.00
2023-05-12T09:55:12.889Z,3576.00
2023-05-12T09:56:12.846Z,4056.00
2023-05-12T09:57:12.860Z,4132.00
2023-05-12T09:58:12.861Z,4340.00
2023-05-12T09:59:12.848Z,4464.00
2023-05-12T10:00:29.776Z,4400.00
2023-05-12T10:01:22.619Z,4244.00
2023-05-12T10:02:12.872Z,4004.00
2023-05-12T10:03:12.883Z,3920.00
2023-05-12T10:04:12.905Z,3848.00
2023-05-12T10:05:13.093Z,3852.00
2023-05-12T10:06:12.914Z,3856.00
2023-05-12T10:07:12.895Z,3820.00
2023-05-12T10:08:12.909Z,3876.00
2023-05-12T10:09:12.901Z,3896.00
2023-05-12T10:10:12.907Z,3936.00
2023-05-12T10:11:12.891Z,4008.00
2023-05-12T10:12:12.906Z,4004.00
2023-05-12T10:13:12.915Z,3928.00
2023-05-12T10:14:12.903Z,3836.00
2023-05-12T10:15:12.917Z,3812.00
2023-05-12T10:16:13.134Z,3860.00
2023-05-12T10:17:12.985Z,3912.00
2023-05-12T10:18:12.982Z,4000.00
2023-05-12T10:19:12.960Z,4008.00
2023-05-12T10:20:12.940Z,4020.00
2023-05-12T10:21:12.955Z,4076.00
2023-05-12T10:22:12.941Z,4076.00
2023-05-12T10:23:12.947Z,3964.00
2023-05-12T10:24:12.954Z,3856.00
2023-05-12T10:25:12.971Z,3824.00
2023-05-12T10:26:12.972Z,3796.00
2023-05-12T10:27:12.967Z,3828.00
2023-05-12T10:28:12.952Z,3888.00
2023-05-12T10:29:12.992Z,3980.00
2023-05-12T10:30:12.970Z,4032.00
2023-05-12T10:31:13.033Z,3980.00
2023-05-12T10:32:12.993Z,3968.00
2023-05-12T10:33:12.984Z,3924.00
2023-05-12T10:34:13.017Z,3960.00
2023-05-12T10:35:12.998Z,3996.00
2023-05-12T10:36:12.996Z,4016.00
2023-05-12T10:37:13.006Z,4084.00
2023-05-12T10:38:13.006Z,4180.00
2023-05-12T10:39:13.014Z,4200.00
2023-05-12T10:40:13.015Z,4224.00
2023-05-12T10:41:13.034Z,4272.00
2023-05-12T10:42:13.021Z,4328.00
2023-05-12T10:43:13.039Z,4336.00
2023-05-12T10:44:13.046Z,4328.00
2023-05-12T10:45:13.060Z,4100.00
2023-05-12T10:46:13.072Z,4012.00
2023-05-12T10:47:13.331Z,4000.00
2023-05-12T10:48:13.093Z,3968.00
2023-05-12T10:49:13.061Z,3892.00
2023-05-12T10:50:13.045Z,3840.00
2023-05-12T10:51:13.045Z,3748.00
2023-05-12T10:52:13.090Z,3724.00
2023-05-12T10:53:13.054Z,3684.00
2023-05-12T10:54:15.000Z,3584.00
2023-05-12T10:55:13.141Z,3604.00
2023-05-12T10:56:13.390Z,3576.00
2023-05-12T10:57:16.021Z,3584.00
2023-05-12T10:58:13.419Z,3632.00
2023-05-12T10:59:13.910Z,3644.00
2023-05-12T11:00:13.536Z,3684.00
2023-05-12T11:01:13.537Z,3688.00
2023-05-12T11:02:13.650Z,3156.00
2023-05-12T11:03:13.372Z,3012.00
2023-05-12T11:04:13.436Z,3396.00
2023-05-12T11:05:13.619Z,4096.00
2023-05-12T11:06:13.884Z,4252.00
2023-05-12T11:07:14.031Z,4436.00
2023-05-12T11:08:14.235Z,4520.00
2023-05-12T11:09:13.568Z,4660.00
2023-05-12T11:10:13.466Z,4700.00
2023-05-12T11:11:13.674Z,4600.00
2023-05-12T11:12:13.127Z,4424.00
2023-05-12T11:13:13.135Z,4116.00
2023-05-12T11:14:13.152Z,3952.00
2023-05-12T11:15:13.155Z,3708.00
2023-05-12T11:16:13.223Z,3392.00
2023-05-12T11:17:13.128Z,3300.00
2023-05-12T11:18:13.229Z,2428.00
2023-05-12T11:19:13.284Z,2476.00
2023-05-12T11:20:13.198Z,2480.00
2023-05-12T11:21:13.173Z,2520.00
2023-05-12T11:22:13.177Z,2824.00
2023-05-12T11:23:13.156Z,3464.00
2023-05-12T11:24:13.184Z,3512.00
2023-05-12T11:25:13.193Z,3620.00
2023-05-12T11:26:13.174Z,3708.00
2023-05-12T11:27:13.181Z,3768.00
2023-05-12T11:28:13.199Z,3688.00
2023-05-12T11:29:13.209Z,3616.00
2023-05-12T11:30:13.222Z,3696.00
2023-05-12T11:31:13.212Z,3836.00
2023-05-12T11:32:13.205Z,3304.00
2023-05-12T11:33:13.236Z,3192.00
2023-05-12T11:34:13.730Z,2192.00
2023-05-12T11:35:13.209Z,2196.00
2023-05-12T11:36:13.482Z,2252.00
2023-05-12T11:37:13.219Z,2304.00
2023-05-12T11:38:13.209Z,2420.00
2023-05-12T11:39:13.211Z,2680.00
2023-05-12T11:40:13.242Z,3940.00
2023-05-12T11:41:13.219Z,4052.00
2023-05-12T11:42:14.259Z,4184.00
2023-05-12T11:43:13.316Z,4256.00
2023-05-12T11:44:13.237Z,4264.00
2023-05-12T11:45:13.230Z,4360.00
2023-05-12T11:46:13.315Z,4236.00
2023-05-12T11:47:13.245Z,4040.00
2023-05-12T11:48:13.298Z,3712.00
2023-05-12T11:49:13.240Z,3472.00
2023-05-12T11:50:13.377Z,3244.00
2023-05-12T11:51:13.251Z,3428.00
2023-05-12T11:52:13.292Z,2584.00
2023-05-12T11:53:13.252Z,2160.00
2023-05-12T11:54:13.256Z,3356.00
2023-05-12T11:55:13.272Z,3460.00
2023-05-12T11:56:13.275Z,3472.00
2023-05-12T11:57:13.293Z,3476.00
2023-05-12T11:58:13.281Z,3456.00
2023-05-12T11:59:13.274Z,3476.00
2023-05-12T12:00:13.355Z,3508.00
2023-05-12T12:01:13.287Z,3484.00
2023-05-12T12:02:13.348Z,3380.00
2023-05-12T12:03:13.479Z,3368.00
2023-05-12T12:04:13.321Z,3348.00
2023-05-12T12:05:13.290Z,3316.00
2023-05-12T12:06:13.310Z,3324.00
2023-05-12T12:07:13.330Z,2044.00
2023-05-12T12:08:13.358Z,3308.00
2023-05-12T12:09:13.303Z,2860.00
2023-05-12T12:10:13.308Z,3372.00
2023-05-12T12:11:13.337Z,3416.00
2023-05-12T12:12:13.316Z,3444.00
2023-05-12T12:13:13.335Z,3492.00
2023-05-12T12:14:13.325Z,3516.00
2023-05-12T12:15:13.320Z,3540.00
2023-05-12T12:16:14.852Z,3532.00
2023-05-12T12:17:13.394Z,3528.00
2023-05-12T12:18:13.425Z,3508.00
2023-05-12T12:19:13.415Z,3564.00
2023-05-12T12:20:13.374Z,3676.00
2023-05-12T12:21:13.349Z,3768.00
2023-05-12T12:22:13.362Z,3772.00
2023-05-12T12:23:13.384Z,3680.00
2023-05-12T12:24:13.370Z,3684.00
2023-05-12T12:25:13.361Z,3728.00
2023-05-12T12:26:13.371Z,3796.00
2023-05-12T12:27:13.382Z,3868.00
2023-05-12T12:28:13.418Z,4096.00
2023-05-12T12:29:13.387Z,4192.00
2023-05-12T12:30:13.407Z,4332.00
2023-05-12T12:31:13.459Z,4696.00
2023-05-12T12:32:13.412Z,4744.00
2023-05-12T12:33:13.475Z,4580.00
2023-05-12T12:34:13.424Z,4196.00
2023-05-12T12:35:13.412Z,3984.00
2023-05-12T12:36:13.392Z,3736.00
2023-05-12T12:37:13.411Z,3596.00
2023-05-12T12:38:13.418Z,3556.00
2023-05-12T12:39:13.396Z,3340.00
2023-05-12T12:40:13.428Z,1828.00
2023-05-12T12:41:13.410Z,1828.00
2023-05-12T12:42:13.417Z,1840.00
2023-05-12T12:43:13.420Z,1884.00
2023-05-12T12:44:13.433Z,1924.00
2023-05-12T12:45:13.423Z,3772.00
2023-05-12T12:46:13.432Z,3712.00
2023-05-12T12:47:13.479Z,3736.00
2023-05-12T12:48:13.454Z,3716.00